Time;durP1;ratioP1;P1;durP2;ratioP2;P2;SDS_P1;SDS_P2;PMS_P1;PMS_P2;Temp;Humidity;BMP_temperature;BMP_pressure;BME280_temperature;BME280_humidity;BME280_pressure;Samples;Min_cycle;Max_cycle;Signal;HPM_P1;HPM_P2
2021/07/05 00:00:47;;;;;;;5.85;4.25;;;;;;;21.09;91.40;100220.72;4921226;29;20039;-76
2021/07/05 00:03:12;;;;;;;7.35;4.22;;;;;;;21.06;91.36;100214.13;4916191;29;20130;-76
2021/07/05 00:05:38;;;;;;;5.63;3.90;;;;;;;21.11;91.36;100213.63;4928624;29;20035;-76
2021/07/05 00:08:04;;;;;;;5.63;4.28;;;;;;;21.07;91.49;100214.91;4936666;29;20466;-77
2021/07/05 00:10:29;;;;;;;6.97;4.55;;;;;;;20.84;92.16;100210.47;4931804;29;20031;-77
2021/07/05 00:12:57;;;;;;;5.70;4.30;;;;;;;20.91;92.47;100212.22;4912845;29;20744;-78
2021/07/05 00:15:29;;;;;;;5.00;4.10;;;;;;;20.85;92.17;100219.47;4929051;29;20399;-76
2021/07/05 00:17:58;;;;;;;7.82;4.55;;;;;;;20.74;93.13;100218.97;4914103;29;20111;-76
2021/07/05 00:20:25;;;;;;;5.45;4.55;;;;;;;20.48;94.20;100231.81;4927778;29;20213;-76
2021/07/05 00:22:50;;;;;;;7.43;4.65;;;;;;;20.43;94.85;100224.91;4935439;29;20048;-77
2021/07/05 00:25:16;;;;;;;7.30;5.22;;;;;;;20.44;95.70;100217.47;4925286;29;20036;-77
2021/07/05 00:27:42;;;;;;;4.95;4.45;;;;;;;20.54;95.21;100221.88;4935442;29;20409;-78
2021/07/05 00:30:08;;;;;;;4.50;4.07;;;;;;;20.61;94.98;100230.66;4939830;29;20051;-76
2021/07/05 00:32:34;;;;;;;6.30;4.45;;;;;;;20.63;94.69;100230.97;4931358;29;20086;-76
2021/07/05 00:34:59;;;;;;;6.03;4.75;;;;;;;20.62;94.58;100231.41;4934391;29;20491;-76
2021/07/05 00:37:25;;;;;;;6.03;4.75;;;;;;;20.79;93.79;100221.94;4933736;29;20054;-76
2021/07/05 00:39:50;;;;;;;7.82;4.47;;;;;;;20.66;94.32;100221.16;4933691;29;20035;-77
2021/07/05 00:42:16;;;;;;;5.30;4.72;;;;;;;20.63;94.06;100217.31;4918187;29;20035;-76
2021/07/05 00:44:42;;;;;;;5.43;4.53;;;;;;;20.35;95.30;100220.03;4916537;29;20407;-77
2021/07/05 00:47:07;;;;;;;7.10;4.80;;;;;;;20.29;96.26;100210.81;4925155;29;20056;-76
2021/07/05 00:49:33;;;;;;;5.50;4.85;;;;;;;20.40;95.90;100212.06;4910078;29;20042;-77
2021/07/05 00:51:59;;;;;;;6.32;5.10;;;;;;;20.56;94.85;100219.47;4937086;29;20150;-76
2021/07/05 00:54:25;;;;;;;6.32;4.90;;;;;;;20.39;95.46;100209.78;4934300;29;20071;-76
2021/07/05 00:56:50;;;;;;;6.43;5.13;;;;;;;20.32;96.09;100213.50;4932546;29;20672;-76
2021/07/05 00:59:17;;;;;;;6.15;4.80;;;;;;;20.30;96.24;100210.41;4934042;29;20032;-76
2021/07/05 01:01:43;;;;;;;6.53;4.93;;;;;;;20.32;96.10;100205.28;4934367;29;20055;-76
2021/07/05 01:04:08;;;;;;;7.13;5.20;;;;;;;20.29;96.52;100202.63;4932901;29;20055;-76
2021/07/05 01:06:35;;;;;;;7.70;5.30;;;;;;;20.29;96.81;100214.34;4938313;29;20486;-76
2021/07/05 01:09:00;;;;;;;7.28;4.97;;;;;;;20.30;96.75;100210.41;4932939;29;20067;-78
2021/07/05 01:11:26;;;;;;;6.68;5.00;;;;;;;20.30;96.57;100215.88;4947042;29;20517;-77
2021/07/05 01:13:51;;;;;;;7.05;5.30;;;;;;;20.21;96.69;100212.97;4945959;29;20498;-76
2021/07/05 01:16:17;;;;;;;6.38;5.43;;;;;;;20.07;97.69;100207.09;4939589;29;20031;-76
2021/07/05 01:18:42;;;;;;;8.05;5.00;;;;;;;20.25;97.20;100207.41;4934443;29;20035;-76
2021/07/05 01:21:08;;;;;;;6.25;5.20;;;;;;;20.24;97.15;100208.63;4934438;29;20040;-77
2021/07/05 01:23:33;;;;;;;9.43;5.35;;;;;;;20.28;96.71;100207.34;4934275;29;20031;-76
2021/07/05 01:25:59;;;;;;;7.70;5.70;;;;;;;20.09;98.39;100219.13;4931462;29;20055;-76
2021/07/05 01:28:25;;;;;;;6.22;5.10;;;;;;;20.22;98.19;100219.22;4932948;29;20035;-76
2021/07/05 01:30:52;;;;;;;7.40;5.80;;;;;;;20.16;98.18;100204.50;4924165;29;20420;-76
2021/07/05 01:33:17;;;;;;;8.23;5.03;;;;;;;20.24;97.77;100209.41;4932452;29;20031;-76
2021/07/05 01:35:44;;;;;;;7.32;5.25;;;;;;;20.28;98.34;100207.34;4914195;29;20065;-77
2021/07/05 01:38:17;;;;;;;5.72;4.90;;;;;;;20.16;98.01;100208.03;4938337;29;20058;-76
2021/07/05 01:40:44;;;;;;;6.07;4.97;;;;;;;20.25;98.21;100205.47;4945132;29;20036;-76
2021/07/05 01:43:10;;;;;;;7.85;5.32;;;;;;;20.38;97.42;100202.78;4932074;29;20027;-76
2021/07/05 01:45:36;;;;;;;7.18;5.47;;;;;;;20.35;97.65;100201.66;4931709;29;20386;-76
2021/07/05 01:48:02;;;;;;;6.82;5.40;;;;;;;20.38;97.65;100195.31;4932893;29;20126;-76
2021/07/05 01:50:29;;;;;;;6.28;5.20;;;;;;;20.28;97.87;100207.34;4929299;29;20114;-77
2021/07/05 01:52:55;;;;;;;8.25;5.25;;;;;;;20.39;97.88;100198.84;4916999;29;20047;-77
2021/07/05 01:55:31;;;;;;;5.82;4.72;;;;;;;20.43;97.51;100189.34;4933980;29;20039;-76
2021/07/05 01:57:57;;;;;;;5.95;4.93;;;;;;;20.41;97.71;100194.47;4951114;23;20065;-75
2021/07/05 02:00:23;;;;;;;7.00;5.03;;;;;;;20.49;97.71;100184.09;4966798;28;20102;-75
2021/07/05 02:02:52;;;;;;;7.03;5.15;;;;;;;20.48;97.40;100185.28;4952466;28;20027;-75
2021/07/05 02:05:17;;;;;;;6.18;5.43;;;;;;;20.52;97.13;100180.47;4969745;28;20043;-75
2021/07/05 02:07:44;;;;;;;6.38;5.05;;;;;;;20.62;96.53;100174.72;4971706;28;20035;-75
2021/07/05 02:10:12;;;;;;;6.40;5.05;;;;;;;20.55;97.52;100165.94;4967222;28;20516;-75
2021/07/05 02:12:39;;;;;;;6.53;5.00;;;;;;;20.49;98.06;100178.63;4969371;28;20046;-75
2021/07/05 02:15:11;;;;;;;6.53;5.05;;;;;;;20.48;98.23;100171.59;4969908;28;20035;-75
2021/07/05 02:17:37;;;;;;;7.53;4.97;;;;;;;20.53;97.78;100184.78;4967859;28;20120;-75
2021/07/05 02:20:24;;;;;;;6.28;5.15;;;;;;;20.62;96.30;100187.63;4970533;28;20138;-75
2021/07/05 02:22:51;;;;;;;6.63;5.45;;;;;;;20.74;95.76;100184.16;4963504;28;20050;-75
2021/07/05 02:25:18;;;;;;;6.00;5.25;;;;;;;20.66;96.05;100193.78;4966658;28;20726;-75
2021/07/05 02:27:44;;;;;;;7.03;5.63;;;;;;;20.65;96.55;100190.25;4952451;28;20026;-75
2021/07/05 02:30:16;;;;;;;8.88;5.10;;;;;;;20.73;96.04;100187.34;4968050;28;20030;-75
2021/07/05 02:32:44;;;;;;;6.90;5.20;;;;;;;20.69;96.78;100181.97;4970010;28;20037;-75
2021/07/05 02:35:14;;;;;;;6.75;5.03;;;;;;;20.73;96.62;100179.88;4968798;28;20039;-75
2021/07/05 02:37:41;;;;;;;7.88;5.88;;;;;;;20.75;96.85;100166.53;4969089;28;20544;-75
2021/07/05 02:40:10;;;;;;;8.18;5.82;;;;;;;20.70;97.33;100180.75;4971490;28;20043;-75
2021/07/05 02:42:37;;;;;;;6.50;5.10;;;;;;;20.75;96.99;100177.47;4971024;28;20037;-75
2021/07/05 02:45:11;;;;;;;6.20;5.10;;;;;;;20.74;97.05;100173.22;4957462;28;20031;-75
2021/07/05 02:47:37;;;;;;;6.30;5.13;;;;;;;20.68;97.73;100180.44;4965711;28;20031;-75
2021/07/05 02:50:04;;;;;;;6.07;5.05;;;;;;;20.80;96.88;100174.22;4969755;28;20034;-75
2021/07/05 02:52:30;;;;;;;6.45;5.18;;;;;;;20.78;97.10;100179.34;4950770;28;20490;-75
2021/07/05 02:54:55;;;;;;;7.90;5.30;;;;;;;20.70;98.00;100188.97;4970384;28;20109;-75
2021/07/05 02:57:30;;;;;;;7.93;5.97;;;;;;;20.65;97.99;100189.53;4970592;28;20402;-75
2021/07/05 03:00:13;;;;;;;8.05;5.70;;;;;;;20.58;98.47;100198.69;4965476;28;20117;-75
2021/07/05 03:02:39;;;;;;;8.20;5.18;;;;;;;20.66;98.64;100194.56;4952565;28;20034;-75
2021/07/05 03:05:08;;;;;;;6.38;5.07;;;;;;;20.67;98.67;100195.31;4969601;28;20046;-75
2021/07/05 03:07:34;;;;;;;5.60;4.78;;;;;;;20.72;98.53;100192.03;4952825;28;20046;-75
2021/07/05 03:09:59;;;;;;;7.13;4.85;;;;;;;20.61;99.26;100192.34;4944887;28;20034;-76
2021/07/05 03:12:25;;;;;;;8.35;5.25;;;;;;;20.65;99.11;100189.53;4953692;28;20409;-75
2021/07/05 03:14:50;;;;;;;6.43;4.90;;;;;;;20.73;99.17;100196.31;4969758;28;20035;-75
2021/07/05 03:17:16;;;;;;;6.40;4.90;;;;;;;20.77;99.50;100188.75;4968996;28;20041;-75
2021/07/05 03:19:42;;;;;;;7.03;4.50;;;;;;;20.73;100.00;100201.03;4971041;28;20524;-76
2021/07/05 03:22:08;;;;;;;6.07;4.88;;;;;;;20.83;100.00;100195.22;4960231;28;20042;-76
2021/07/05 03:24:33;;;;;;;6.47;5.13;;;;;;;20.72;100.00;100191.28;4966902;28;20058;-75
2021/07/05 03:26:59;;;;;;;6.00;4.78;;;;;;;20.73;100.00;100196.31;4941282;28;20114;-75
2021/07/05 03:29:25;;;;;;;6.03;4.90;;;;;;;20.67;100.00;100195.31;4949044;28;20098;-76
2021/07/05 03:31:50;;;;;;;6.57;4.65;;;;;;;20.63;100.00;100184.44;4967078;28;20031;-76
2021/07/05 03:34:16;;;;;;;6.07;5.03;;;;;;;20.66;100.00;100194.56;4969287;28;20121;-76
2021/07/05 03:36:42;;;;;;;6.68;5.50;;;;;;;20.67;100.00;100187.88;4972826;28;20027;-76
2021/07/05 03:39:07;;;;;;;6.43;5.15;;;;;;;20.67;100.00;100189.84;4969637;28;20719;-76
2021/07/05 03:41:33;;;;;;;6.63;5.38;;;;;;;20.74;100.00;100200.59;4971476;28;20481;-76
2021/07/05 03:43:58;;;;;;;7.72;5.78;;;;;;;20.60;100.00;100190.03;4966574;28;20117;-75
2021/07/05 03:46:24;;;;;;;7.28;5.32;;;;;;;20.66;100.00;100202.00;4971868;28;20146;-75
2021/07/05 03:48:50;;;;;;;11.95;6.13;;;;;;;20.58;100.00;100198.69;4968871;28;20031;-75
2021/07/05 03:51:16;;;;;;;10.95;6.15;;;;;;;20.39;100.00;100196.88;4941787;28;20408;-76
2021/07/05 03:53:41;;;;;;;8.85;6.28;;;;;;;20.45;100.00;100194.38;4945510;28;20045;-75
2021/07/05 03:56:07;;;;;;;8.55;6.55;;;;;;;20.47;100.00;100191.97;4952701;28;20127;-76
2021/07/05 03:58:32;;;;;;;10.10;6.65;;;;;;;20.53;100.00;100196.50;4956742;28;20045;-75
2021/07/05 04:01:01;;;;;;;8.43;6.53;;;;;;;20.46;100.00;100196.66;4952464;28;20035;-75
2021/07/05 04:03:30;;;;;;;9.48;7.05;;;;;;;20.42;100.00;100206.94;4969997;28;20485;-76
2021/07/05 04:05:58;;;;;;;9.88;7.43;;;;;;;20.48;100.00;100209.91;4973817;28;20631;-76
2021/07/05 04:08:26;;;;;;;11.25;7.28;;;;;;;20.46;100.00;100204.13;4972460;28;20117;-75
2021/07/05 04:10:52;;;;;;;12.18;7.43;;;;;;;20.50;100.00;100202.03;4969548;28;20058;-75
2021/07/05 04:13:18;;;;;;;12.25;7.65;;;;;;;20.58;100.00;100203.38;4968040;28;20031;-75
2021/07/05 04:15:43;;;;;;;10.73;8.15;;;;;;;20.59;100.00;100199.47;4972033;28;20093;-75
2021/07/05 04:18:08;;;;;;;10.30;7.57;;;;;;;20.56;100.00;100211.25;4973061;28;20026;-75
2021/07/05 04:20:34;;;;;;;13.95;8.85;;;;;;;20.49;100.00;100216.94;4973364;28;20474;-75
2021/07/05 04:23:00;;;;;;;11.63;8.18;;;;;;;20.54;100.00;100203.50;4954759;28;20030;-75
2021/07/05 04:25:26;;;;;;;11.50;8.48;;;;;;;20.53;100.00;100210.19;4971908;28;20485;-75
2021/07/05 04:27:53;;;;;;;12.32;8.45;;;;;;;20.56;100.00;100206.56;4945408;28;20559;-75
2021/07/05 04:30:19;;;;;;;18.23;9.30;;;;;;;20.58;100.00;100215.09;4963909;28;20034;-75
2021/07/05 04:32:46;;;;;;;14.77;9.70;;;;;;;20.59;100.00;100207.66;4957017;28;20118;-75
2021/07/05 04:35:14;;;;;;;18.25;10.20;;;;;;;20.59;100.00;100215.88;4963217;28;20086;-75
2021/07/05 04:37:43;;;;;;;14.73;9.40;;;;;;;20.65;100.00;100206.69;4967312;28;20031;-75
2021/07/05 04:40:12;;;;;;;14.18;9.32;;;;;;;20.60;100.00;100214.66;4931994;29;20553;-76
2021/07/05 04:42:39;;;;;;;12.05;8.85;;;;;;;20.58;100.00;100208.84;4944267;28;20145;-75
2021/07/05 04:45:07;;;;;;;14.30;9.70;;;;;;;20.63;100.00;100208.34;4962846;28;20051;-75
2021/07/05 04:47:33;;;;;;;13.23;9.48;;;;;;;20.66;100.00;100204.72;4964662;28;20476;-75
2021/07/05 04:49:59;;;;;;;12.75;9.85;;;;;;;20.67;100.00;100206.28;4964186;28;20081;-75
2021/07/05 04:52:25;;;;;;;17.27;9.90;;;;;;;20.71;100.00;100211.66;4952791;28;20551;-75
2021/07/05 04:54:50;;;;;;;13.48;10.18;;;;;;;20.65;100.00;100208.69;4961983;28;21187;-75
2021/07/05 04:57:16;;;;;;;15.18;10.13;;;;;;;20.71;100.00;100197.97;4971559;28;20035;-76
2021/07/05 04:59:42;;;;;;;16.40;10.35;;;;;;;20.65;100.00;100203.94;4969957;28;20038;-76
2021/07/05 05:02:08;;;;;;;16.40;10.52;;;;;;;20.68;100.00;100207.78;4970740;28;20030;-76
2021/07/05 05:04:33;;;;;;;14.70;10.55;;;;;;;20.69;100.00;100203.88;4969702;28;20365;-76
2021/07/05 05:06:59;;;;;;;14.98;10.43;;;;;;;20.70;100.00;100205.41;4971311;28;20038;-76
2021/07/05 05:09:24;;;;;;;18.92;11.02;;;;;;;20.66;100.00;100202.00;4971679;28;20033;-73
2021/07/05 05:11:51;;;;;;;16.23;10.77;;;;;;;20.72;100.00;100202.22;4954603;28;20035;-75
2021/07/05 05:14:17;;;;;;;15.77;10.00;;;;;;;20.73;100.00;100207.25;4967622;28;20798;-76
2021/07/05 05:16:43;;;;;;;15.70;10.27;;;;;;;20.75;100.00;100204.09;4960662;28;20035;-76
2021/07/05 05:19:08;;;;;;;17.63;10.65;;;;;;;20.72;100.00;100203.00;4967666;28;20037;-76
2021/07/05 05:21:34;;;;;;;18.38;10.63;;;;;;;20.73;100.00;100203.75;4970908;28;20070;-75
2021/07/05 05:24:00;;;;;;;16.15;10.93;;;;;;;20.70;100.00;100197.19;4969302;28;20027;-76
2021/07/05 05:26:26;;;;;;;14.95;10.25;;;;;;;20.79;100.00;100196.56;4948333;28;20596;-76
2021/07/05 05:28:51;;;;;;;13.65;10.30;;;;;;;20.73;100.00;100196.31;4971815;28;20030;-76
2021/07/05 05:31:17;;;;;;;13.32;10.18;;;;;;;20.76;100.00;100192.72;4954051;28;20031;-76
2021/07/05 05:33:43;;;;;;;13.48;9.57;;;;;;;20.72;100.00;100196.75;4968627;28;20081;-76
2021/07/05 05:36:08;;;;;;;13.75;10.10;;;;;;;20.79;100.00;100199.28;4950643;28;20101;-75
2021/07/05 05:38:34;;;;;;;15.80;10.57;;;;;;;20.77;100.00;100204.44;4953124;28;20045;-75
2021/07/05 05:41:00;;;;;;;14.00;10.02;;;;;;;20.81;100.00;100200.38;4967539;28;20034;-74
2021/07/05 05:43:26;;;;;;;18.00;10.07;;;;;;;20.69;100.00;100212.09;4952241;28;20540;-75
2021/07/05 05:45:51;;;;;;;16.27;10.25;;;;;;;20.61;100.00;100210.75;4953494;28;20511;-75
2021/07/05 05:48:17;;;;;;;13.48;9.82;;;;;;;20.66;100.00;100207.47;4965630;28;20030;-75
2021/07/05 05:50:42;;;;;;;21.08;10.65;;;;;;;20.71;100.00;100206.94;4940028;28;20061;-75
2021/07/05 05:53:08;;;;;;;16.58;10.13;;;;;;;20.68;100.00;100203.09;4964275;28;20122;-75
2021/07/05 05:55:34;;;;;;;14.20;9.75;;;;;;;20.88;100.00;100202.16;4953107;28;20035;-75
2021/07/05 05:57:59;;;;;;;13.60;10.60;;;;;;;20.83;100.00;100208.91;4967592;28;20574;-75
2021/07/05 06:00:26;;;;;;;15.50;10.40;;;;;;;20.77;100.00;100207.16;4964562;28;20058;-75
2021/07/05 06:02:53;;;;;;;18.30;10.77;;;;;;;20.78;100.00;100211.44;4953256;28;20038;-75
2021/07/05 06:05:20;;;;;;;16.55;9.43;;;;;;;20.73;100.00;100223.69;4964837;28;20549;-75
2021/07/05 06:07:49;;;;;;;16.73;10.52;;;;;;;20.61;100.00;100227.16;4965120;28;20121;-75
2021/07/05 06:10:16;;;;;;;14.27;9.45;;;;;;;20.71;100.00;100226.09;4969927;28;20074;-75
2021/07/05 06:12:42;;;;;;;14.20;10.15;;;;;;;20.73;100.00;100220.19;4960676;28;20022;-75
2021/07/05 06:15:08;;;;;;;16.08;9.63;;;;;;;20.75;100.00;100215.78;4948633;28;20091;-75
2021/07/05 06:17:34;;;;;;;14.10;9.73;;;;;;;20.82;100.00;100215.63;4970729;28;20034;-75
2021/07/05 06:20:01;;;;;;;17.08;10.10;;;;;;;20.95;100.00;100218.38;4964900;28;20529;-75
2021/07/05 06:22:30;;;;;;;14.57;9.90;;;;;;;21.00;100.00;100217.84;4969003;28;20114;-75
2021/07/05 06:24:56;;;;;;;13.18;9.25;;;;;;;20.98;100.00;100217.50;4968300;28;20137;-75
2021/07/05 06:27:23;;;;;;;13.60;9.70;;;;;;;20.91;100.00;100214.97;4965003;28;20023;-75
2021/07/05 06:29:48;;;;;;;13.05;9.82;;;;;;;20.93;100.00;100220.75;4972527;28;20109;-75
2021/07/05 06:32:14;;;;;;;15.70;9.35;;;;;;;21.01;100.00;100219.38;4953298;28;20130;-75
2021/07/05 06:34:40;;;;;;;14.00;9.68;;;;;;;20.98;99.57;100221.00;4949762;28;20548;-75
2021/07/05 06:37:06;;;;;;;17.48;10.10;;;;;;;20.98;99.56;100223.72;4970851;28;20412;-75
2021/07/05 06:39:32;;;;;;;14.90;9.90;;;;;;;20.86;100.00;100219.03;4968126;28;20089;-76
2021/07/05 06:41:58;;;;;;;15.07;9.63;;;;;;;20.83;100.00;100210.91;4953362;28;20413;-75
2021/07/05 06:44:23;;;;;;;14.25;9.32;;;;;;;20.95;100.00;100205.44;4958622;28;20425;-75
2021/07/05 06:46:49;;;;;;;20.20;9.75;;;;;;;21.04;100.00;100211.06;4951568;28;20039;-75
2021/07/05 06:49:17;;;;;;;10.32;8.48;;;;;;;21.17;98.96;100209.13;4966931;28;20078;-75
2021/07/05 06:51:44;;;;;;;14.13;8.48;;;;;;;21.20;97.74;100210.97;4969650;28;20035;-75
2021/07/05 06:54:09;;;;;;;10.40;8.30;;;;;;;21.45;95.78;100210.97;4958580;28;20027;-75
2021/07/05 06:56:35;;;;;;;10.73;8.50;;;;;;;21.48;96.67;100212.84;4965812;28;20046;-75
2021/07/05 06:59:00;;;;;;;12.82;8.82;;;;;;;21.42;96.89;100224.81;4967212;28;20982;-75
2021/07/05 07:01:26;;;;;;;12.43;8.73;;;;;;;21.30;98.20;100218.13;4969891;28;20121;-75
2021/07/05 07:03:51;;;;;;;10.98;8.52;;;;;;;21.34;98.12;100209.78;4976097;28;20047;-75
2021/07/05 07:06:17;;;;;;;12.07;8.50;;;;;;;21.37;97.55;100214.38;4972628;28;20039;-75
2021/07/05 07:08:43;;;;;;;14.18;8.43;;;;;;;21.44;95.64;100214.94;4960002;28;20158;-75
2021/07/05 07:11:08;;;;;;;13.90;9.02;;;;;;;21.36;94.92;100210.88;4959142;28;20035;-75
2021/07/05 07:13:34;;;;;;;15.90;9.25;;;;;;;21.31;95.26;100211.41;4956571;28;20030;-75
2021/07/05 07:16:01;;;;;;;17.45;9.13;;;;;;;21.27;94.16;100220.97;4973672;28;20041;-75
2021/07/05 07:20:56;;;;;;;11.07;8.98;;;;;;;21.32;92.14;100223.94;4971070;28;20509;-75
2021/07/05 07:23:22;;;;;;;15.10;9.75;;;;;;;21.41;91.52;100221.28;4953397;28;20054;-75
2021/07/05 07:25:47;;;;;;;13.02;10.40;;;;;;;21.50;90.77;100224.13;4961932;28;20042;-75
2021/07/05 07:28:13;;;;;;;16.08;10.95;;;;;;;21.45;89.76;100216.47;4973592;28;20575;-75
2021/07/05 07:30:39;;;;;;;14.52;10.45;;;;;;;21.48;90.19;100215.59;4969659;28;20030;-75
2021/07/05 07:33:04;;;;;;;16.77;11.10;;;;;;;21.63;88.85;100209.66;4950056;28;20034;-75
2021/07/05 07:35:30;;;;;;;14.57;10.25;;;;;;;21.64;88.24;100194.75;4948305;28;20499;-75
2021/07/05 07:37:56;;;;;;;15.27;10.20;;;;;;;21.53;87.12;100201.34;4955375;28;20034;-75
2021/07/05 07:40:24;;;;;;;16.63;9.88;;;;;;;21.50;88.47;100196.72;4971025;28;20042;-75
2021/07/05 07:42:50;;;;;;;16.52;10.82;;;;;;;21.58;88.33;100202.75;4972099;28;20035;-75
2021/07/05 07:45:17;;;;;;;15.80;10.75;;;;;;;21.60;89.21;100203.09;4955788;28;20539;-75
2021/07/05 07:47:43;;;;;;;13.43;10.13;;;;;;;21.63;88.06;100193.19;4961192;28;20038;-75
2021/07/05 07:50:11;;;;;;;12.00;9.98;;;;;;;21.67;87.87;100191.88;4968816;28;20043;-75
2021/07/05 07:52:37;;;;;;;14.27;10.02;;;;;;;21.82;88.34;100197.69;4978930;28;20114;-75
2021/07/05 07:55:06;;;;;;;13.32;10.50;;;;;;;21.95;88.07;100201.19;4969819;28;20023;-75
2021/07/05 07:57:31;;;;;;;12.43;8.90;;;;;;;22.23;85.20;100198.25;4973461;28;20118;-75
2021/07/05 07:59:57;;;;;;;12.30;9.45;;;;;;;22.28;83.86;100199.63;4957372;28;20535;-75
2021/07/05 08:02:22;;;;;;;10.82;8.57;;;;;;;22.49;84.81;100198.13;4958416;28;20038;-75
2021/07/05 08:04:48;;;;;;;13.80;9.65;;;;;;;22.71;83.46;100205.16;4956959;28;20050;-75
2021/07/05 08:07:13;;;;;;;11.27;9.52;;;;;;;22.73;82.51;100201.97;4974663;28;20512;-75
2021/07/05 08:09:39;;;;;;;11.30;9.60;;;;;;;22.66;82.92;100194.78;4968976;28;20030;-75
2021/07/05 08:12:07;;;;;;;13.70;10.55;;;;;;;22.64;82.41;100199.94;4969473;28;20648;-74
2021/07/05 08:14:32;;;;;;;13.18;9.55;;;;;;;22.88;82.05;100192.00;4971839;28;20431;-75
2021/07/05 08:16:58;;;;;;;13.65;8.43;;;;;;;23.37;81.50;100186.59;4969858;28;20113;-75
2021/07/05 08:19:23;;;;;;;11.50;7.90;;;;;;;23.56;81.70;100186.19;4962458;28;20075;-74
2021/07/05 08:21:49;;;;;;;11.75;9.30;;;;;;;23.68;78.62;100179.81;4960987;28;20037;-75
2021/07/05 08:24:14;;;;;;;10.38;8.25;;;;;;;23.70;78.56;100179.34;4968945;28;20501;-75
2021/07/05 08:26:40;;;;;;;9.38;7.53;;;;;;;23.81;76.70;100180.44;4944353;28;20472;-75
2021/07/05 08:29:06;;;;;;;9.95;7.45;;;;;;;23.88;75.16;100176.63;4944720;28;20489;-75
2021/07/05 08:31:32;;;;;;;8.95;6.43;;;;;;;23.98;75.67;100178.19;4958432;28;20077;-74
2021/07/05 08:34:00;;;;;;;9.93;7.38;;;;;;;24.09;75.25;100173.00;4967327;28;20027;-74
2021/07/05 08:36:26;;;;;;;8.63;6.97;;;;;;;24.30;76.09;100187.81;4946985;28;20041;-75
2021/07/05 08:38:52;;;;;;;9.40;7.53;;;;;;;24.15;75.22;100187.69;4949860;28;20089;-75
2021/07/05 08:41:18;;;;;;;9.15;7.82;;;;;;;24.21;74.54;100185.09;4953752;28;20122;-75
2021/07/05 08:43:46;;;;;;;10.65;7.70;;;;;;;24.09;74.20;100189.53;4970070;28;20122;-75
2021/07/05 08:46:14;;;;;;;11.25;7.47;;;;;;;23.71;75.53;100180.88;4966893;28;20037;-74
2021/07/05 08:48:43;;;;;;;8.18;6.20;;;;;;;23.68;78.16;100176.28;4970804;28;20035;-75
2021/07/05 08:51:14;;;;;;;10.80;7.47;;;;;;;24.14;77.60;100183.38;4967735;28;20350;-75
2021/07/05 08:53:41;;;;;;;12.07;6.80;;;;;;;24.37;75.05;100180.00;4940766;28;20035;-75
2021/07/05 08:56:07;;;;;;;9.15;7.05;;;;;;;24.40;74.84;100186.59;4966852;28;20077;-74
2021/07/05 08:58:34;;;;;;;8.65;5.78;;;;;;;24.45;75.15;100180.50;4970642;28;20050;-74
2021/07/05 09:01:00;;;;;;;8.75;6.93;;;;;;;24.50;75.32;100183.38;4966737;28;20023;-74
2021/07/05 09:03:28;;;;;;;7.88;6.72;;;;;;;24.53;73.80;100185.22;4970165;28;20093;-75
2021/07/05 09:06:12;;;;;;;11.45;7.10;;;;;;;24.37;74.03;100184.78;4969196;28;20066;-74
2021/07/05 09:08:40;;;;;;;8.88;6.90;;;;;;;24.35;73.84;100189.97;4966531;28;20125;-74
2021/07/05 09:11:08;;;;;;;8.70;6.38;;;;;;;24.17;76.00;100179.75;4971377;28;20031;-74
2021/07/05 09:13:53;;;;;;;10.35;6.40;;;;;;;24.13;74.46;100179.13;4953900;28;20114;-74
2021/07/05 09:16:35;;;;;;;9.02;6.50;;;;;;;24.22;75.71;100181.88;4962138;28;20026;-74
2021/07/05 09:19:02;;;;;;;11.10;6.13;;;;;;;24.62;73.58;100181.69;4964100;28;20359;-74
2021/07/05 09:21:30;;;;;;;8.27;5.90;;;;;;;24.82;72.39;100179.22;4960556;28;20588;-75
2021/07/05 09:24:23;;;;;;;7.40;5.97;;;;;;;24.86;70.60;100191.59;4953664;28;20035;-75
2021/07/05 09:27:01;;;;;;;6.75;6.03;;;;;;;24.71;71.55;100179.69;4902891;29;20128;-74
2021/07/05 09:29:26;;;;;;;6.15;5.57;;;;;;;24.58;71.91;100179.09;4910614;29;20134;-75
2021/07/05 09:31:53;;;;;;;7.47;6.18;;;;;;;24.82;73.71;100176.44;4910634;29;20130;-74
2021/07/05 09:34:21;;;;;;;9.25;6.40;;;;;;;25.20;73.61;100186.91;4910653;29;20212;-74
2021/07/05 09:36:48;;;;;;;9.45;7.40;;;;;;;25.51;72.51;100190.16;4902923;29;20454;-74
2021/07/05 09:39:16;;;;;;;9.57;6.70;;;;;;;25.58;70.51;100189.78;4906932;29;20126;-74
2021/07/05 09:41:43;;;;;;;6.97;5.97;;;;;;;25.67;70.63;100190.50;4891980;29;20126;-74
2021/07/05 09:44:13;;;;;;;8.27;5.97;;;;;;;25.54;69.49;100195.50;4889513;29;20546;-74
2021/07/05 09:46:45;;;;;;;8.52;6.57;;;;;;;25.42;70.75;100190.19;4907922;29;20061;-74
2021/07/05 09:49:31;;;;;;;7.15;6.32;;;;;;;25.60;70.77;100192.84;4907952;29;20047;-75
2021/07/05 09:52:14;;;;;;;5.50;5.00;;;;;;;25.85;70.24;100203.44;4907818;29;20056;-75
2021/07/05 09:54:47;;;;;;;8.23;6.38;;;;;;;25.68;67.75;100196.78;4902673;29;20032;-74
2021/07/05 09:57:27;;;;;;;7.10;6.38;;;;;;;25.64;67.89;100193.44;4906314;29;20080;-74
2021/07/05 10:00:12;;;;;;;6.17;5.57;;;;;;;25.47;67.55;100206.13;4902116;29;20044;-75
2021/07/05 10:03:03;;;;;;;6.32;5.72;;;;;;;25.34;69.51;100194.50;4897417;29;20654;-74
2021/07/05 10:05:43;;;;;;;6.88;5.00;;;;;;;25.28;69.78;100202.63;4956227;28;20042;-74
2021/07/05 10:08:11;;;;;;;6.10;5.50;;;;;;;25.50;70.13;100197.66;4957433;28;20038;-74
2021/07/05 10:10:39;;;;;;;8.25;5.35;;;;;;;25.54;68.89;100201.00;4957260;28;20073;-74
2021/07/05 10:13:11;;;;;;;6.13;4.93;;;;;;;25.43;68.93;100197.25;4951147;28;20128;-75
2021/07/05 10:15:39;;;;;;;5.95;5.10;;;;;;;25.31;69.17;100209.22;4951973;28;20536;-74
2021/07/05 10:18:05;;;;;;;5.50;5.00;;;;;;;25.25;68.31;100191.78;4954808;28;20038;-74
2021/07/05 10:20:35;;;;;;;6.55;5.28;;;;;;;25.24;67.84;100195.78;4940054;28;20070;-74
2021/07/05 10:23:05;;;;;;;7.50;5.47;;;;;;;25.19;67.43;100191.66;4957975;28;20034;-75
2021/07/05 10:25:32;;;;;;;9.88;5.70;;;;;;;25.27;69.10;100198.34;4944740;28;20023;-75
2021/07/05 10:27:59;;;;;;;7.32;5.03;;;;;;;25.48;68.31;100199.34;4960602;28;20470;-74
2021/07/05 10:30:24;;;;;;;7.30;4.65;;;;;;;25.75;68.69;100199.97;4937840;28;20042;-75
2021/07/05 10:32:50;;;;;;;5.13;4.63;;;;;;;26.10;66.09;100211.25;4955303;28;20046;-74
2021/07/05 10:35:21;;;;;;;5.97;5.20;;;;;;;26.42;63.41;100201.34;4954622;28;20030;-74
2021/07/05 10:38:00;;;;;;;5.37;4.87;;;;;;;26.61;62.98;100211.75;4953505;28;20105;-75
2021/07/05 10:40:55;;;;;;;6.68;5.18;;;;;;;26.52;60.71;100208.28;4952024;28;20030;-75
2021/07/05 10:43:24;;;;;;;5.97;4.75;;;;;;;26.56;63.10;100206.09;4952850;28;20047;-75
2021/07/05 10:45:53;;;;;;;6.13;4.88;;;;;;;26.42;61.82;100204.84;4959077;28;20106;-74
2021/07/05 10:48:39;;;;;;;5.55;5.05;;;;;;;26.28;62.30;100213.88;4961465;28;20097;-74
2021/07/05 10:51:08;;;;;;;5.80;5.07;;;;;;;26.12;63.97;100213.53;4970266;28;20046;-75
2021/07/05 10:53:46;;;;;;;5.10;4.40;;;;;;;26.27;63.94;100217.88;4967888;28;20041;-74
2021/07/05 10:56:42;;;;;;;9.13;4.90;;;;;;;26.03;64.23;100214.34;4970023;28;20229;-74
2021/07/05 10:59:10;;;;;;;4.75;4.30;;;;;;;25.94;63.70;100214.41;4957706;28;20046;-75
2021/07/05 11:01:44;;;;;;;6.13;4.40;;;;;;;25.83;62.04;100217.72;4966119;28;20396;-75
2021/07/05 11:04:30;;;;;;;6.07;4.03;;;;;;;25.80;64.28;100210.34;4966559;28;20130;-74
2021/07/05 11:07:15;;;;;;;8.57;4.60;;;;;;;26.11;63.54;100204.50;4969333;28;20041;-74
2021/07/05 11:09:55;;;;;;;5.18;4.15;;;;;;;26.34;63.71;100205.69;4970578;28;20115;-74
2021/07/05 11:12:32;;;;;;;5.10;4.55;;;;;;;26.14;64.69;100206.31;4971636;28;20454;-74
2021/07/05 11:14:58;;;;;;;4.65;4.13;;;;;;;26.16;63.63;100203.84;4969921;28;20037;-74
2021/07/05 11:17:26;;;;;;;5.38;4.53;;;;;;;26.10;61.86;100199.44;4959732;28;20039;-75
2021/07/05 11:19:55;;;;;;;8.55;4.18;;;;;;;25.91;64.78;100207.06;4971515;28;20043;-74
2021/07/05 11:22:21;;;;;;;4.85;4.30;;;;;;;26.03;63.79;100197.78;4971625;28;20064;-74
2021/07/05 11:24:50;;;;;;;7.28;4.20;;;;;;;26.14;64.76;100202.78;4956048;28;20051;-74